Terminal Aerodrome Forecast
Issued by NWS Sioux Falls, SD

Home | Current Version | Previous Version | Text Only | Print | Product List | Glossary On
Versions: 1 2 3 4 5 6 7 8 9 10 11 12 13 14 15
000
FTUS43 KFSD 291127
TAFFSD
TAF
KFSD 291127Z 2912/3012 29014KT P6SM SKC
     FM291400 31028G38KT P6SM SCT025 BKN040
      TEMPO 2915/2918 BKN025
     FM291830 32026G35KT P6SM SKC
     FM300000 31013G19KT P6SM SKC
     FM300200 23003KT P6SM SKC
     FM300800 22005KT P6SM FEW070 BKN200=

USA.gov is the U.S. government's official web portal to all federal, state and local government web resources and services.